sensor_id;sensor_type;location;lat;lon;timestamp;temperature;humidity
13203;DHT22;6666;51.626;7.530;2022-08-23T00:00:11;20.40;99.90
13203;DHT22;6666;51.626;7.530;2022-08-23T00:02:40;20.50;99.90
13203;DHT22;6666;51.626;7.530;2022-08-23T00:05:10;20.50;99.90
13203;DHT22;6666;51.626;7.530;2022-08-23T00:07:42;20.60;99.90
13203;DHT22;6666;51.626;7.530;2022-08-23T00:10:13;20.50;99.90
13203;DHT22;6666;51.626;7.530;2022-08-23T00:12:42;20.50;99.90
13203;DHT22;6666;51.626;7.530;2022-08-23T00:15:13;20.40;99.90
13203;DHT22;6666;51.626;7.530;2022-08-23T00:17:42;20.20;99.90
13203;DHT22;6666;51.626;7.530;2022-08-23T00:20:14;20.10;99.90
13203;DHT22;6666;51.626;7.530;2022-08-23T00:22:44;20.20;99.90
13203;DHT22;6666;51.626;7.530;2022-08-23T00:25:13;20.20;99.90
13203;DHT22;6666;51.626;7.530;2022-08-23T00:27:42;20.20;99.90
13203;DHT22;6666;51.626;7.530;2022-08-23T00:30:13;20.10;99.90
13203;DHT22;6666;51.626;7.530;2022-08-23T00:32:42;19.90;99.90
13203;DHT22;6666;51.626;7.530;2022-08-23T00:35:12;19.90;99.90
13203;DHT22;6666;51.626;7.530;2022-08-23T00:37:56;19.90;99.90
13203;DHT22;6666;51.626;7.530;2022-08-23T00:40:45;20.00;99.90
13203;DHT22;6666;51.626;7.530;2022-08-23T00:43:17;19.90;99.90
13203;DHT22;6666;51.626;7.530;2022-08-23T00:46:08;20.00;99.90
13203;DHT22;6666;51.626;7.530;2022-08-23T00:48:57;19.90;99.90
13203;DHT22;6666;51.626;7.530;2022-08-23T00:51:32;19.90;99.90
13203;DHT22;6666;51.626;7.530;2022-08-23T00:54:21;19.90;99.90
13203;DHT22;6666;51.626;7.530;2022-08-23T00:56:51;19.80;99.90
13203;DHT22;6666;51.626;7.530;2022-08-23T00:59:21;19.70;99.90
13203;DHT22;6666;51.626;7.530;2022-08-23T01:01:51;19.70;99.90
13203;DHT22;6666;51.626;7.530;2022-08-23T01:04:20;19.70;99.90
13203;DHT22;6666;51.626;7.530;2022-08-23T01:06:53;19.70;99.90
13203;DHT22;6666;51.626;7.530;2022-08-23T01:09:25;19.70;99.90
13203;DHT22;6666;51.626;7.530;2022-08-23T01:12:04;19.60;99.90
13203;DHT22;6666;51.626;7.530;2022-08-23T01:14:38;19.40;99.90
13203;DHT22;6666;51.626;7.530;2022-08-23T01:17:10;19.20;99.90
13203;DHT22;6666;51.626;7.530;2022-08-23T01:19:43;19.10;99.90
13203;DHT22;6666;51.626;7.530;2022-08-23T01:22:17;19.00;99.90
13203;DHT22;6666;51.626;7.530;2022-08-23T01:24:49;18.90;99.90
13203;DHT22;6666;51.626;7.530;2022-08-23T01:27:40;19.00;99.90
13203;DHT22;6666;51.626;7.530;2022-08-23T01:30:22;19.10;99.90
13203;DHT22;6666;51.626;7.530;2022-08-23T01:32:52;19.10;99.90
13203;DHT22;6666;51.626;7.530;2022-08-23T01:35:32;19.10;99.90
13203;DHT22;6666;51.626;7.530;2022-08-23T01:38:04;19.00;99.90
13203;DHT22;6666;51.626;7.530;2022-08-23T01:40:35;18.80;99.90
13203;DHT22;6666;51.626;7.530;2022-08-23T01:43:06;18.80;99.90
13203;DHT22;6666;51.626;7.530;2022-08-23T01:45:36;18.90;99.90
13203;DHT22;6666;51.626;7.530;2022-08-23T01:48:07;18.90;99.90
13203;DHT22;6666;51.626;7.530;2022-08-23T01:50:35;18.90;99.90
13203;DHT22;6666;51.626;7.530;2022-08-23T01:53:06;18.70;99.90
13203;DHT22;6666;51.626;7.530;2022-08-23T01:55:43;18.60;99.90
13203;DHT22;6666;51.626;7.530;2022-08-23T01:58:11;18.50;99.90
13203;DHT22;6666;51.626;7.530;2022-08-23T02:00:41;18.40;99.90
13203;DHT22;6666;51.626;7.530;2022-08-23T02:03:12;18.30;99.90
13203;DHT22;6666;51.626;7.530;2022-08-23T02:05:42;18.30;99.90
13203;DHT22;6666;51.626;7.530;2022-08-23T02:08:12;18.30;99.90
13203;DHT22;6666;51.626;7.530;2022-08-23T02:11:06;18.20;99.90
13203;DHT22;6666;51.626;7.530;2022-08-23T02:13:37;18.00;99.90
13203;DHT22;6666;51.626;7.530;2022-08-23T02:16:06;18.10;99.90
13203;DHT22;6666;51.626;7.530;2022-08-23T02:18:41;18.00;99.90
13203;DHT22;6666;51.626;7.530;2022-08-23T02:21:11;18.00;99.90
13203;DHT22;6666;51.626;7.530;2022-08-23T02:23:39;18.00;99.90
13203;DHT22;6666;51.626;7.530;2022-08-23T02:26:09;17.90;99.90
13203;DHT22;6666;51.626;7.530;2022-08-23T02:28:37;17.80;99.90
13203;DHT22;6666;51.626;7.530;2022-08-23T02:31:06;17.80;99.90
13203;DHT22;6666;51.626;7.530;2022-08-23T02:33:37;17.70;99.90
13203;DHT22;6666;51.626;7.530;2022-08-23T02:36:07;17.80;99.90
13203;DHT22;6666;51.626;7.530;2022-08-23T02:38:35;17.80;99.90
13203;DHT22;6666;51.626;7.530;2022-08-23T02:41:04;18.00;99.90
13203;DHT22;6666;51.626;7.530;2022-08-23T02:43:34;18.00;99.90
13203;DHT22;6666;51.626;7.530;2022-08-23T02:46:07;18.00;99.90
13203;DHT22;6666;51.626;7.530;2022-08-23T02:48:36;18.00;99.90
13203;DHT22;6666;51.626;7.530;2022-08-23T02:51:07;18.00;99.90
13203;DHT22;6666;51.626;7.530;2022-08-23T02:53:37;17.90;99.90
13203;DHT22;6666;51.626;7.530;2022-08-23T02:56:09;18.00;99.90
13203;DHT22;6666;51.626;7.530;2022-08-23T02:58:49;17.90;99.90
13203;DHT22;6666;51.626;7.530;2022-08-23T03:01:24;17.90;99.90
13203;DHT22;6666;51.626;7.530;2022-08-23T03:03:57;17.90;99.90
13203;DHT22;6666;51.626;7.530;2022-08-23T03:06:29;17.90;99.90
13203;DHT22;6666;51.626;7.530;2022-08-23T03:08:58;17.90;99.90
13203;DHT22;6666;51.626;7.530;2022-08-23T03:11:27;17.90;99.90
13203;DHT22;6666;51.626;7.530;2022-08-23T03:13:56;17.80;99.90
13203;DHT22;6666;51.626;7.530;2022-08-23T03:16:28;17.70;99.90
13203;DHT22;6666;51.626;7.530;2022-08-23T03:18:57;17.50;99.90
13203;DHT22;6666;51.626;7.530;2022-08-23T03:21:28;17.40;99.90
13203;DHT22;6666;51.626;7.530;2022-08-23T03:23:58;17.50;99.90
13203;DHT22;6666;51.626;7.530;2022-08-23T03:26:27;17.40;99.90
13203;DHT22;6666;51.626;7.530;2022-08-23T03:28:57;17.40;99.90
13203;DHT22;6666;51.626;7.530;2022-08-23T03:31:30;17.40;99.90
13203;DHT22;6666;51.626;7.530;2022-08-23T03:34:05;17.50;99.90
13203;DHT22;6666;51.626;7.530;2022-08-23T03:36:33;17.60;99.90
13203;DHT22;6666;51.626;7.530;2022-08-23T03:39:03;17.70;99.90
13203;DHT22;6666;51.626;7.530;2022-08-23T03:41:31;17.60;99.90
13203;DHT22;6666;51.626;7.530;2022-08-23T03:44:02;17.60;99.90
13203;DHT22;6666;51.626;7.530;2022-08-23T03:46:33;17.50;99.90
13203;DHT22;6666;51.626;7.530;2022-08-23T03:49:03;17.30;99.90
13203;DHT22;6666;51.626;7.530;2022-08-23T03:51:49;17.30;99.90
13203;DHT22;6666;51.626;7.530;2022-08-23T03:54:17;17.40;99.90
13203;DHT22;6666;51.626;7.530;2022-08-23T03:56:52;17.40;99.90
13203;DHT22;6666;51.626;7.530;2022-08-23T03:59:23;17.40;99.90
13203;DHT22;6666;51.626;7.530;2022-08-23T04:01:53;17.20;99.90
13203;DHT22;6666;51.626;7.530;2022-08-23T04:04:22;17.20;99.90
13203;DHT22;6666;51.626;7.530;2022-08-23T04:07:10;17.10;99.90
13203;DHT22;6666;51.626;7.530;2022-08-23T04:09:39;17.10;99.90
13203;DHT22;6666;51.626;7.530;2022-08-23T04:12:10;17.10;99.90
13203;DHT22;6666;51.626;7.530;2022-08-23T04:14:45;17.10;99.90
13203;DHT22;6666;51.626;7.530;2022-08-23T04:17:15;17.20;99.90
13203;DHT22;6666;51.626;7.530;2022-08-23T04:19:43;17.20;99.90
13203;DHT22;6666;51.626;7.530;2022-08-23T04:22:14;17.20;99.90
13203;DHT22;6666;51.626;7.530;2022-08-23T04:24:43;17.20;99.90
13203;DHT22;6666;51.626;7.530;2022-08-23T04:27:12;17.20;99.90
13203;DHT22;6666;51.626;7.530;2022-08-23T04:29:42;17.20;99.90
13203;DHT22;6666;51.626;7.530;2022-08-23T04:32:12;17.30;99.90
13203;DHT22;6666;51.626;7.530;2022-08-23T04:34:53;17.20;99.90
13203;DHT22;6666;51.626;7.530;2022-08-23T04:37:21;17.10;99.90
13203;DHT22;6666;51.626;7.530;2022-08-23T04:39:50;17.00;99.90
13203;DHT22;6666;51.626;7.530;2022-08-23T04:42:41;17.00;99.90
13203;DHT22;6666;51.626;7.530;2022-08-23T04:45:10;16.90;99.90
13203;DHT22;6666;51.626;7.530;2022-08-23T04:47:45;17.00;99.90
13203;DHT22;6666;51.626;7.530;2022-08-23T04:50:14;17.00;99.90
13203;DHT22;6666;51.626;7.530;2022-08-23T04:53:08;17.00;99.90
13203;DHT22;6666;51.626;7.530;2022-08-23T04:55:47;17.00;99.90
13203;DHT22;6666;51.626;7.530;2022-08-23T04:58:18;17.00;99.90
13203;DHT22;6666;51.626;7.530;2022-08-23T05:00:48;17.00;99.90
13203;DHT22;6666;51.626;7.530;2022-08-23T05:03:23;17.00;99.90
13203;DHT22;6666;51.626;7.530;2022-08-23T05:05:54;17.10;99.90
13203;DHT22;6666;51.626;7.530;2022-08-23T05:08:31;17.10;99.90
13203;DHT22;6666;51.626;7.530;2022-08-23T05:11:00;17.10;99.90
13203;DHT22;6666;51.626;7.530;2022-08-23T05:13:29;17.20;99.90
13203;DHT22;6666;51.626;7.530;2022-08-23T05:16:02;17.30;99.90
13203;DHT22;6666;51.626;7.530;2022-08-23T05:18:35;17.40;99.90
13203;DHT22;6666;51.626;7.530;2022-08-23T05:21:05;17.50;99.90
13203;DHT22;6666;51.626;7.530;2022-08-23T05:23:33;17.80;99.90
13203;DHT22;6666;51.626;7.530;2022-08-23T05:26:07;18.40;99.90
13203;DHT22;6666;51.626;7.530;2022-08-23T05:28:42;19.10;99.90
13203;DHT22;6666;51.626;7.530;2022-08-23T05:31:16;19.70;99.90
13203;DHT22;6666;51.626;7.530;2022-08-23T05:33:53;21.00;99.90
13203;DHT22;6666;51.626;7.530;2022-08-23T05:36:28;21.60;99.90
13203;DHT22;6666;51.626;7.530;2022-08-23T05:38:57;21.90;99.90
13203;DHT22;6666;51.626;7.530;2022-08-23T05:41:25;21.60;99.90
13203;DHT22;6666;51.626;7.530;2022-08-23T05:44:07;21.50;99.90
13203;DHT22;6666;51.626;7.530;2022-08-23T05:46:41;21.30;99.90
13203;DHT22;6666;51.626;7.530;2022-08-23T05:49:35;21.30;99.90
13203;DHT22;6666;51.626;7.530;2022-08-23T05:52:07;21.00;99.90
13203;DHT22;6666;51.626;7.530;2022-08-23T05:54:36;20.70;99.90
13203;DHT22;6666;51.626;7.530;2022-08-23T05:57:26;20.50;99.90
13203;DHT22;6666;51.626;7.530;2022-08-23T05:59:54;20.40;99.90
13203;DHT22;6666;51.626;7.530;2022-08-23T06:02:22;20.40;99.90
13203;DHT22;6666;51.626;7.530;2022-08-23T06:04:52;20.30;99.90
13203;DHT22;6666;51.626;7.530;2022-08-23T06:07:23;20.30;99.90
13203;DHT22;6666;51.626;7.530;2022-08-23T06:09:52;20.20;99.90
13203;DHT22;6666;51.626;7.530;2022-08-23T06:12:21;20.10;99.90
13203;DHT22;6666;51.626;7.530;2022-08-23T06:14:51;20.20;99.90
13203;DHT22;6666;51.626;7.530;2022-08-23T06:17:19;20.30;99.90
13203;DHT22;6666;51.626;7.530;2022-08-23T06:19:48;20.10;99.90
13203;DHT22;6666;51.626;7.530;2022-08-23T06:22:25;20.20;99.90
13203;DHT22;6666;51.626;7.530;2022-08-23T06:24:53;20.20;99.90
13203;DHT22;6666;51.626;7.530;2022-08-23T06:27:40;20.30;99.90
13203;DHT22;6666;51.626;7.530;2022-08-23T06:30:09;20.50;99.90
13203;DHT22;6666;51.626;7.530;2022-08-23T06:32:44;20.60;99.90
13203;DHT22;6666;51.626;7.530;2022-08-23T06:35:31;20.70;99.90
13203;DHT22;6666;51.626;7.530;2022-08-23T06:38:22;20.70;99.90
13203;DHT22;6666;51.626;7.530;2022-08-23T06:41:11;20.70;99.90
13203;DHT22;6666;51.626;7.530;2022-08-23T06:44:06;20.80;99.90
13203;DHT22;6666;51.626;7.530;2022-08-23T06:47:08;20.90;99.90
13203;DHT22;6666;51.626;7.530;2022-08-23T06:49:36;21.00;99.90
13203;DHT22;6666;51.626;7.530;2022-08-23T06:52:06;21.10;99.90
13203;DHT22;6666;51.626;7.530;2022-08-23T06:54:59;21.20;99.90
13203;DHT22;6666;51.626;7.530;2022-08-23T06:57:42;21.40;99.90
13203;DHT22;6666;51.626;7.530;2022-08-23T07:00:25;21.40;99.90
13203;DHT22;6666;51.626;7.530;2022-08-23T07:03:19;21.50;99.90
13203;DHT22;6666;51.626;7.530;2022-08-23T07:06:07;21.60;99.90
13203;DHT22;6666;51.626;7.530;2022-08-23T07:08:36;21.60;99.90
13203;DHT22;6666;51.626;7.530;2022-08-23T07:11:06;21.70;99.90
13203;DHT22;6666;51.626;7.530;2022-08-23T07:13:39;21.70;99.90
13203;DHT22;6666;51.626;7.530;2022-08-23T07:16:07;21.90;99.90
13203;DHT22;6666;51.626;7.530;2022-08-23T07:18:36;22.00;99.90
13203;DHT22;6666;51.626;7.530;2022-08-23T07:21:05;22.10;99.90
13203;DHT22;6666;51.626;7.530;2022-08-23T07:23:35;22.20;99.90
13203;DHT22;6666;51.626;7.530;2022-08-23T07:26:10;22.30;99.90
13203;DHT22;6666;51.626;7.530;2022-08-23T07:28:39;22.30;99.90
13203;DHT22;6666;51.626;7.530;2022-08-23T07:31:10;22.40;99.90
13203;DHT22;6666;51.626;7.530;2022-08-23T07:33:42;22.50;99.90
13203;DHT22;6666;51.626;7.530;2022-08-23T07:36:18;22.60;99.90
13203;DHT22;6666;51.626;7.530;2022-08-23T07:38:48;22.70;99.90
13203;DHT22;6666;51.626;7.530;2022-08-23T07:41:23;22.70;99.90
13203;DHT22;6666;51.626;7.530;2022-08-23T07:43:52;22.80;99.90
13203;DHT22;6666;51.626;7.530;2022-08-23T07:46:21;22.90;99.90
13203;DHT22;6666;51.626;7.530;2022-08-23T07:48:51;22.90;99.90
13203;DHT22;6666;51.626;7.530;2022-08-23T07:51:32;23.00;99.90
13203;DHT22;6666;51.626;7.530;2022-08-23T07:54:01;23.00;99.90
13203;DHT22;6666;51.626;7.530;2022-08-23T07:56:31;23.10;99.90
13203;DHT22;6666;51.626;7.530;2022-08-23T07:59:05;23.20;99.90
13203;DHT22;6666;51.626;7.530;2022-08-23T08:01:56;23.20;99.90
13203;DHT22;6666;51.626;7.530;2022-08-23T08:04:25;23.20;99.90
13203;DHT22;6666;51.626;7.530;2022-08-23T08:06:55;23.30;99.90
13203;DHT22;6666;51.626;7.530;2022-08-23T08:09:47;23.30;99.90
13203;DHT22;6666;51.626;7.530;2022-08-23T08:12:17;23.40;99.90
13203;DHT22;6666;51.626;7.530;2022-08-23T08:14:48;23.50;99.90
13203;DHT22;6666;51.626;7.530;2022-08-23T08:17:20;23.60;99.90
13203;DHT22;6666;51.626;7.530;2022-08-23T08:20:03;23.60;99.90
13203;DHT22;6666;51.626;7.530;2022-08-23T08:22:38;23.70;99.90
13203;DHT22;6666;51.626;7.530;2022-08-23T08:25:32;23.90;99.90
13203;DHT22;6666;51.626;7.530;2022-08-23T08:28:06;24.00;99.90
13203;DHT22;6666;51.626;7.530;2022-08-23T08:30:41;24.10;99.90
13203;DHT22;6666;51.626;7.530;2022-08-23T08:33:10;24.10;99.90
13203;DHT22;6666;51.626;7.530;2022-08-23T08:35:41;24.20;99.90
13203;DHT22;6666;51.626;7.530;2022-08-23T08:38:09;24.20;99.90
13203;DHT22;6666;51.626;7.530;2022-08-23T08:40:39;24.30;99.90
13203;DHT22;6666;51.626;7.530;2022-08-23T08:43:24;24.30;99.90
13203;DHT22;6666;51.626;7.530;2022-08-23T08:46:02;24.30;99.90
13203;DHT22;6666;51.626;7.530;2022-08-23T08:48:39;24.40;99.90
13203;DHT22;6666;51.626;7.530;2022-08-23T08:51:19;24.50;99.90
13203;DHT22;6666;51.626;7.530;2022-08-23T08:53:51;24.50;99.90
13203;DHT22;6666;51.626;7.530;2022-08-23T08:56:30;24.60;99.90
13203;DHT22;6666;51.626;7.530;2022-08-23T08:59:24;24.60;99.90
13203;DHT22;6666;51.626;7.530;2022-08-23T09:01:55;24.60;99.90
13203;DHT22;6666;51.626;7.530;2022-08-23T09:04:33;24.60;99.90
13203;DHT22;6666;51.626;7.530;2022-08-23T09:07:09;24.60;99.90
13203;DHT22;6666;51.626;7.530;2022-08-23T09:09:59;24.70;99.90
13203;DHT22;6666;51.626;7.530;2022-08-23T09:12:38;24.80;99.90
13203;DHT22;6666;51.626;7.530;2022-08-23T09:15:23;24.80;99.90
13203;DHT22;6666;51.626;7.530;2022-08-23T09:17:57;24.90;99.90
13203;DHT22;6666;51.626;7.530;2022-08-23T09:20:31;25.00;99.90
13203;DHT22;6666;51.626;7.530;2022-08-23T09:23:06;25.20;99.90
13203;DHT22;6666;51.626;7.530;2022-08-23T09:25:37;25.00;99.90
13203;DHT22;6666;51.626;7.530;2022-08-23T09:28:13;25.00;99.90
13203;DHT22;6666;51.626;7.530;2022-08-23T09:30:50;25.10;99.90
13203;DHT22;6666;51.626;7.530;2022-08-23T09:33:21;25.20;99.90
13203;DHT22;6666;51.626;7.530;2022-08-23T09:36:11;25.20;99.90
13203;DHT22;6666;51.626;7.530;2022-08-23T09:38:50;25.30;99.90
13203;DHT22;6666;51.626;7.530;2022-08-23T09:41:24;25.20;99.90
13203;DHT22;6666;51.626;7.530;2022-08-23T09:43:56;25.10;99.90
13203;DHT22;6666;51.626;7.530;2022-08-23T09:46:32;25.40;99.90
13203;DHT22;6666;51.626;7.530;2022-08-23T09:49:22;25.30;99.90
13203;DHT22;6666;51.626;7.530;2022-08-23T09:51:55;25.40;99.30
13203;DHT22;6666;51.626;7.530;2022-08-23T09:54:28;25.40;99.90
13203;DHT22;6666;51.626;7.530;2022-08-23T09:56:59;25.60;99.70
13203;DHT22;6666;51.626;7.530;2022-08-23T09:59:42;25.70;99.60
13203;DHT22;6666;51.626;7.530;2022-08-23T10:02:25;25.90;99.80
13203;DHT22;6666;51.626;7.530;2022-08-23T10:05:01;25.80;99.60
13203;DHT22;6666;51.626;7.530;2022-08-23T10:07:36;25.80;99.40
13203;DHT22;6666;51.626;7.530;2022-08-23T10:10:30;25.60;98.60
13203;DHT22;6666;51.626;7.530;2022-08-23T10:13:03;25.70;99.20
13203;DHT22;6666;51.626;7.530;2022-08-23T10:15:50;25.80;99.50
13203;DHT22;6666;51.626;7.530;2022-08-23T10:18:34;25.90;99.00
13203;DHT22;6666;51.626;7.530;2022-08-23T10:21:16;25.80;99.90
13203;DHT22;6666;51.626;7.530;2022-08-23T10:24:03;25.80;99.90
13203;DHT22;6666;51.626;7.530;2022-08-23T10:26:43;26.00;99.30
13203;DHT22;6666;51.626;7.530;2022-08-23T10:29:19;26.10;98.30
13203;DHT22;6666;51.626;7.530;2022-08-23T10:32:13;26.30;97.20
13203;DHT22;6666;51.626;7.530;2022-08-23T10:35:02;26.20;97.70
13203;DHT22;6666;51.626;7.530;2022-08-23T10:37:45;26.20;97.10
13203;DHT22;6666;51.626;7.530;2022-08-23T10:40:21;26.30;96.90
13203;DHT22;6666;51.626;7.530;2022-08-23T10:43:04;26.30;97.00
13203;DHT22;6666;51.626;7.530;2022-08-23T10:45:37;26.30;98.20
13203;DHT22;6666;51.626;7.530;2022-08-23T10:48:23;26.80;97.10
13203;DHT22;6666;51.626;7.530;2022-08-23T10:51:00;26.70;95.20
13203;DHT22;6666;51.626;7.530;2022-08-23T10:53:36;26.90;96.30
13203;DHT22;6666;51.626;7.530;2022-08-23T10:56:07;27.00;95.60
13203;DHT22;6666;51.626;7.530;2022-08-23T10:58:48;27.10;95.20
13203;DHT22;6666;51.626;7.530;2022-08-23T11:01:22;26.90;94.60
13203;DHT22;6666;51.626;7.530;2022-08-23T11:04:00;27.10;94.70
13203;DHT22;6666;51.626;7.530;2022-08-23T11:06:47;27.00;94.70
13203;DHT22;6666;51.626;7.530;2022-08-23T11:12:33;26.90;96.00
13203;DHT22;6666;51.626;7.530;2022-08-23T11:15:24;27.20;96.50
13203;DHT22;6666;51.626;7.530;2022-08-23T11:17:58;27.20;95.70
13203;DHT22;6666;51.626;7.530;2022-08-23T11:21:03;27.30;95.60
13203;DHT22;6666;51.626;7.530;2022-08-23T11:23:48;27.20;94.80
13203;DHT22;6666;51.626;7.530;2022-08-23T11:29:39;27.30;96.50
13203;DHT22;6666;51.626;7.530;2022-08-23T11:32:43;27.30;95.60
13203;DHT22;6666;51.626;7.530;2022-08-23T11:50:57;27.80;92.40
13203;DHT22;6666;51.626;7.530;2022-08-23T11:53:39;27.80;91.90
13203;DHT22;6666;51.626;7.530;2022-08-23T11:56:27;27.70;90.40
13203;DHT22;6666;51.626;7.530;2022-08-23T11:59:15;27.80;90.60
13203;DHT22;6666;51.626;7.530;2022-08-23T12:01:46;27.80;90.90
13203;DHT22;6666;51.626;7.530;2022-08-23T12:04:30;28.00;92.80
13203;DHT22;6666;51.626;7.530;2022-08-23T12:07:02;28.10;92.20
13203;DHT22;6666;51.626;7.530;2022-08-23T12:09:55;28.10;91.10
13203;DHT22;6666;51.626;7.530;2022-08-23T12:12:27;28.00;88.60
13203;DHT22;6666;51.626;7.530;2022-08-23T12:15:04;27.90;87.40
13203;DHT22;6666;51.626;7.530;2022-08-23T12:17:53;28.00;89.10
13203;DHT22;6666;51.626;7.530;2022-08-23T12:20:28;28.00;90.30
13203;DHT22;6666;51.626;7.530;2022-08-23T12:23:15;28.30;90.30
13203;DHT22;6666;51.626;7.530;2022-08-23T12:25:44;28.50;88.10
13203;DHT22;6666;51.626;7.530;2022-08-23T12:28:27;28.50;87.50
13203;DHT22;6666;51.626;7.530;2022-08-23T12:31:02;28.30;84.70
13203;DHT22;6666;51.626;7.530;2022-08-23T12:33:44;28.20;87.70
13203;DHT22;6666;51.626;7.530;2022-08-23T12:36:20;28.30;85.00
13203;DHT22;6666;51.626;7.530;2022-08-23T12:39:01;28.30;84.80
13203;DHT22;6666;51.626;7.530;2022-08-23T12:41:42;28.50;82.60
13203;DHT22;6666;51.626;7.530;2022-08-23T12:44:18;28.40;84.10
13203;DHT22;6666;51.626;7.530;2022-08-23T12:46:48;28.50;85.20
13203;DHT22;6666;51.626;7.530;2022-08-23T12:49:26;28.50;83.20
13203;DHT22;6666;51.626;7.530;2022-08-23T12:51:58;28.60;82.50
13203;DHT22;6666;51.626;7.530;2022-08-23T12:54:37;28.70;84.20
13203;DHT22;6666;51.626;7.530;2022-08-23T12:57:07;28.50;83.00
13203;DHT22;6666;51.626;7.530;2022-08-23T12:59:41;28.50;83.10
13203;DHT22;6666;51.626;7.530;2022-08-23T13:02:19;28.60;82.00
13203;DHT22;6666;51.626;7.530;2022-08-23T13:04:50;28.60;82.30
13203;DHT22;6666;51.626;7.530;2022-08-23T13:07:20;28.60;81.00
13203;DHT22;6666;51.626;7.530;2022-08-23T13:09:52;28.60;82.30
13203;DHT22;6666;51.626;7.530;2022-08-23T13:12:21;28.60;83.00
13203;DHT22;6666;51.626;7.530;2022-08-23T13:14:52;28.40;82.40
13203;DHT22;6666;51.626;7.530;2022-08-23T13:17:30;28.50;83.80
13203;DHT22;6666;51.626;7.530;2022-08-23T13:20:17;28.40;83.40
13203;DHT22;6666;51.626;7.530;2022-08-23T13:23:00;28.40;83.60
13203;DHT22;6666;51.626;7.530;2022-08-23T13:25:33;28.40;82.10
13203;DHT22;6666;51.626;7.530;2022-08-23T13:28:05;28.60;82.70
13203;DHT22;6666;51.626;7.530;2022-08-23T13:30:35;28.60;84.00
13203;DHT22;6666;51.626;7.530;2022-08-23T13:33:17;28.70;82.60
13203;DHT22;6666;51.626;7.530;2022-08-23T13:35:47;28.70;81.50
13203;DHT22;6666;51.626;7.530;2022-08-23T13:38:22;28.70;79.90
13203;DHT22;6666;51.626;7.530;2022-08-23T13:41:01;28.70;82.70
13203;DHT22;6666;51.626;7.530;2022-08-23T13:43:33;28.70;81.50
13203;DHT22;6666;51.626;7.530;2022-08-23T13:46:11;28.60;81.10
13203;DHT22;6666;51.626;7.530;2022-08-23T13:48:45;28.70;79.20
13203;DHT22;6666;51.626;7.530;2022-08-23T13:51:27;28.80;80.50
13203;DHT22;6666;51.626;7.530;2022-08-23T13:53:57;28.80;79.30
13203;DHT22;6666;51.626;7.530;2022-08-23T13:56:29;28.80;79.90
13203;DHT22;6666;51.626;7.530;2022-08-23T13:59:00;28.70;81.50
13203;DHT22;6666;51.626;7.530;2022-08-23T14:01:30;28.70;81.10
13203;DHT22;6666;51.626;7.530;2022-08-23T14:03:59;28.80;83.00
13203;DHT22;6666;51.626;7.530;2022-08-23T14:06:27;28.90;81.10
13203;DHT22;6666;51.626;7.530;2022-08-23T14:08:55;28.90;79.50
13203;DHT22;6666;51.626;7.530;2022-08-23T14:11:23;28.90;77.10
13203;DHT22;6666;51.626;7.530;2022-08-23T14:13:53;28.90;76.50
13203;DHT22;6666;51.626;7.530;2022-08-23T14:16:24;28.80;77.30
13203;DHT22;6666;51.626;7.530;2022-08-23T14:19:06;29.00;78.30
13203;DHT22;6666;51.626;7.530;2022-08-23T14:21:55;28.90;77.00
13203;DHT22;6666;51.626;7.530;2022-08-23T14:24:23;28.80;78.80
13203;DHT22;6666;51.626;7.530;2022-08-23T14:26:53;29.00;76.90
13203;DHT22;6666;51.626;7.530;2022-08-23T14:29:25;29.00;79.40
13203;DHT22;6666;51.626;7.530;2022-08-23T14:31:55;29.10;80.20
13203;DHT22;6666;51.626;7.530;2022-08-23T14:34:24;29.20;78.60
13203;DHT22;6666;51.626;7.530;2022-08-23T14:36:53;29.30;76.30
13203;DHT22;6666;51.626;7.530;2022-08-23T14:39:42;29.30;78.40
13203;DHT22;6666;51.626;7.530;2022-08-23T14:42:11;29.30;76.20
13203;DHT22;6666;51.626;7.530;2022-08-23T14:44:42;29.40;75.70
13203;DHT22;6666;51.626;7.530;2022-08-23T14:47:11;29.50;75.30
13203;DHT22;6666;51.626;7.530;2022-08-23T14:49:39;29.70;74.80
13203;DHT22;6666;51.626;7.530;2022-08-23T14:52:08;29.60;73.80
13203;DHT22;6666;51.626;7.530;2022-08-23T14:54:37;29.50;76.50
13203;DHT22;6666;51.626;7.530;2022-08-23T14:57:05;29.50;76.30
13203;DHT22;6666;51.626;7.530;2022-08-23T14:59:33;29.50;78.10
13203;DHT22;6666;51.626;7.530;2022-08-23T15:02:04;29.40;75.20
13203;DHT22;6666;51.626;7.530;2022-08-23T15:04:34;29.40;74.20
13203;DHT22;6666;51.626;7.530;2022-08-23T15:07:03;29.50;73.20
13203;DHT22;6666;51.626;7.530;2022-08-23T15:09:48;29.20;73.00
13203;DHT22;6666;51.626;7.530;2022-08-23T15:12:17;29.20;72.30
13203;DHT22;6666;51.626;7.530;2022-08-23T15:15:09;29.30;72.00
13203;DHT22;6666;51.626;7.530;2022-08-23T15:17:46;29.30;73.00
13203;DHT22;6666;51.626;7.530;2022-08-23T15:20:14;29.20;73.80
13203;DHT22;6666;51.626;7.530;2022-08-23T15:22:42;29.20;73.50
13203;DHT22;6666;51.626;7.530;2022-08-23T15:25:22;29.20;73.80
13203;DHT22;6666;51.626;7.530;2022-08-23T15:27:51;29.20;71.10
13203;DHT22;6666;51.626;7.530;2022-08-23T15:30:20;29.20;71.60
13203;DHT22;6666;51.626;7.530;2022-08-23T15:32:50;29.30;71.00
13203;DHT22;6666;51.626;7.530;2022-08-23T15:35:34;29.20;72.10
13203;DHT22;6666;51.626;7.530;2022-08-23T15:38:06;29.20;70.60
13203;DHT22;6666;51.626;7.530;2022-08-23T15:40:35;29.20;71.60
13203;DHT22;6666;51.626;7.530;2022-08-23T15:43:03;29.20;70.50
13203;DHT22;6666;51.626;7.530;2022-08-23T15:45:32;29.10;71.60
13203;DHT22;6666;51.626;7.530;2022-08-23T15:48:06;29.10;72.80
13203;DHT22;6666;51.626;7.530;2022-08-23T15:50:43;29.20;71.10
13203;DHT22;6666;51.626;7.530;2022-08-23T15:53:13;29.00;72.70
13203;DHT22;6666;51.626;7.530;2022-08-23T15:55:42;28.80;73.20
13203;DHT22;6666;51.626;7.530;2022-08-23T15:58:14;28.60;73.10
13203;DHT22;6666;51.626;7.530;2022-08-23T16:00:42;28.40;74.40
13203;DHT22;6666;51.626;7.530;2022-08-23T16:03:12;28.50;76.30
13203;DHT22;6666;51.626;7.530;2022-08-23T16:05:49;28.50;77.00
13203;DHT22;6666;51.626;7.530;2022-08-23T16:08:21;28.60;76.30
13203;DHT22;6666;51.626;7.530;2022-08-23T16:10:51;28.60;74.20
13203;DHT22;6666;51.626;7.530;2022-08-23T16:13:19;28.70;76.50
13203;DHT22;6666;51.626;7.530;2022-08-23T16:15:48;28.70;74.70
13203;DHT22;6666;51.626;7.530;2022-08-23T16:18:18;28.70;75.10
13203;DHT22;6666;51.626;7.530;2022-08-23T16:20:47;28.40;76.40
13203;DHT22;6666;51.626;7.530;2022-08-23T16:23:20;28.50;76.30
13203;DHT22;6666;51.626;7.530;2022-08-23T16:25:49;28.40;77.10
13203;DHT22;6666;51.626;7.530;2022-08-23T16:28:17;28.40;77.60
13203;DHT22;6666;51.626;7.530;2022-08-23T16:30:45;28.30;76.60
13203;DHT22;6666;51.626;7.530;2022-08-23T16:33:14;28.40;79.60
13203;DHT22;6666;51.626;7.530;2022-08-23T16:35:43;28.30;78.20
13203;DHT22;6666;51.626;7.530;2022-08-23T16:38:12;28.30;77.10
13203;DHT22;6666;51.626;7.530;2022-08-23T16:40:40;28.40;77.30
13203;DHT22;6666;51.626;7.530;2022-08-23T16:43:08;28.30;76.20
13203;DHT22;6666;51.626;7.530;2022-08-23T16:45:36;28.30;77.10
13203;DHT22;6666;51.626;7.530;2022-08-23T16:48:05;28.30;77.60
13203;DHT22;6666;51.626;7.530;2022-08-23T16:50:38;28.30;76.90
13203;DHT22;6666;51.626;7.530;2022-08-23T16:53:08;28.20;79.20